createdAt,value
2018-03-06T00:02:12.385Z,13.27
2018-03-06T00:04:40.007Z,14.10
2018-03-06T00:07:08.371Z,13.20
2018-03-06T00:09:35.981Z,14.37
2018-03-06T00:12:03.588Z,13.60
2018-03-06T00:14:31.170Z,17.77
2018-03-06T00:16:58.824Z,13.57
2018-03-06T00:19:26.415Z,14.63
2018-03-06T00:21:54.737Z,13.43
2018-03-06T00:24:22.335Z,13.27
2018-03-06T00:26:49.963Z,14.93
2018-03-06T00:29:17.533Z,14.90
2018-03-06T00:31:45.202Z,14.70
2018-03-06T00:34:13.577Z,12.97
2018-03-06T00:36:41.164Z,13.67
2018-03-06T00:39:09.539Z,14.43
2018-03-06T00:41:37.208Z,19.03
2018-03-06T00:44:05.544Z,14.23
2018-03-06T00:46:33.138Z,14.90
2018-03-06T00:49:00.743Z,14.00
2018-03-06T00:51:28.359Z,12.93
2018-03-06T00:53:55.949Z,14.33
2018-03-06T00:56:24.275Z,14.70
2018-03-06T00:58:51.851Z,14.10
2018-03-06T01:01:19.519Z,12.23
2018-03-06T01:03:47.214Z,13.13
2018-03-06T01:06:14.802Z,14.47
2018-03-06T01:08:42.405Z,14.33
2018-03-06T01:11:09.978Z,12.07
2018-03-06T01:13:38.374Z,14.10
2018-03-06T01:16:06.837Z,17.73
2018-03-06T01:18:34.454Z,14.33
2018-03-06T01:21:02.021Z,13.33
2018-03-06T01:23:29.615Z,14.87
2018-03-06T01:25:57.170Z,12.80
2018-03-06T01:28:24.722Z,13.10
2018-03-06T01:30:52.303Z,14.83
2018-03-06T01:33:19.875Z,11.37
2018-03-06T01:35:47.444Z,13.93
2018-03-06T01:38:15.795Z,12.77
2018-03-06T01:40:43.389Z,13.83
2018-03-06T01:43:11.733Z,15.30
2018-03-06T01:45:39.396Z,15.00
2018-03-06T01:48:07.071Z,11.57
2018-03-06T01:50:34.628Z,13.10
2018-03-06T01:53:02.227Z,12.03
2018-03-06T01:55:29.790Z,14.33
2018-03-06T01:57:57.535Z,13.13
2018-03-06T02:00:26.005Z,13.20
2018-03-06T02:02:53.667Z,12.43
2018-03-06T02:05:21.243Z,14.60
2018-03-06T02:07:49.711Z,14.50
2018-03-06T02:10:17.274Z,12.13
2018-03-06T02:12:44.828Z,14.13
2018-03-06T02:15:12.424Z,13.87
2018-03-06T02:17:40.055Z,13.23
2018-03-06T02:20:07.648Z,13.43
2018-03-06T02:22:35.237Z,11.30
2018-03-06T02:25:02.826Z,13.57
2018-03-06T02:27:30.506Z,12.07
2018-03-06T02:29:58.104Z,13.50
2018-03-06T02:32:25.680Z,12.93
2018-03-06T02:34:53.241Z,17.40
2018-03-06T02:37:20.822Z,10.93
2018-03-06T02:39:48.497Z,14.13
2018-03-06T02:42:16.166Z,11.33
2018-03-06T02:44:43.753Z,11.20
2018-03-06T02:47:12.126Z,14.13
2018-03-06T02:49:39.674Z,11.97
2018-03-06T02:52:07.345Z,12.67
2018-03-06T02:54:34.916Z,14.13
2018-03-06T02:57:02.490Z,13.27
2018-03-06T02:59:30.939Z,13.63
2018-03-06T03:01:58.503Z,12.63
2018-03-06T03:04:26.071Z,12.93
2018-03-06T03:06:53.665Z,12.63
2018-03-06T03:09:21.232Z,12.50
2018-03-06T03:11:48.815Z,13.83
2018-03-06T03:14:16.401Z,13.20
2018-03-06T03:16:43.980Z,12.67
2018-03-06T03:19:11.550Z,13.33
2018-03-06T03:21:40.012Z,14.73
2018-03-06T03:24:07.581Z,12.67
2018-03-06T03:26:35.184Z,13.57
2018-03-06T03:29:02.758Z,14.53
2018-03-06T03:31:30.351Z,13.87
2018-03-06T03:33:58.046Z,12.37
2018-03-06T03:36:26.498Z,14.20
2018-03-06T03:38:54.069Z,13.87
2018-03-06T03:41:21.721Z,13.93
2018-03-06T03:43:49.388Z,10.80
2018-03-06T03:46:18.466Z,14.03
2018-03-06T03:48:46.059Z,13.10
2018-03-06T03:51:13.730Z,14.70
2018-03-06T03:53:42.070Z,15.43
2018-03-06T03:56:12.549Z,13.07
2018-03-06T03:58:40.891Z,13.50
2018-03-06T04:01:08.454Z,16.73
2018-03-06T04:03:36.132Z,11.47
2018-03-06T04:06:04.483Z,12.87
2018-03-06T04:08:32.075Z,11.60
2018-03-06T04:10:59.749Z,11.33
2018-03-06T04:13:28.195Z,9.80
2018-03-06T04:15:55.748Z,11.60
2018-03-06T04:18:23.307Z,10.70
2018-03-06T04:20:50.884Z,14.07
2018-03-06T04:23:18.463Z,11.93
2018-03-06T04:25:46.053Z,12.07
2018-03-06T04:28:14.498Z,9.70
2018-03-06T04:30:42.054Z,11.77
2018-03-06T04:33:11.131Z,11.90
2018-03-06T04:35:38.716Z,11.30
2018-03-06T04:38:06.360Z,11.83
2018-03-06T04:40:33.951Z,10.67
2018-03-06T04:43:01.522Z,15.90
2018-03-06T04:45:29.888Z,10.63
2018-03-06T04:47:57.542Z,11.80
2018-03-06T04:50:25.143Z,13.23
2018-03-06T04:52:53.474Z,11.93
2018-03-06T04:55:21.148Z,10.27
2018-03-06T04:57:48.750Z,10.67
2018-03-06T05:00:16.383Z,11.73
2018-03-06T05:02:44.714Z,12.90
2018-03-06T05:05:12.303Z,11.27
2018-03-06T05:07:39.860Z,12.63
2018-03-06T05:10:08.218Z,10.63
2018-03-06T05:12:35.894Z,10.40
2018-03-06T05:15:03.468Z,9.77
2018-03-06T05:17:31.927Z,10.73
2018-03-06T05:19:59.510Z,11.97
2018-03-06T05:22:27.185Z,10.10
2018-03-06T05:24:54.837Z,12.37
2018-03-06T05:27:22.427Z,10.73
2018-03-06T05:29:50.778Z,11.93
2018-03-06T05:32:18.442Z,11.77
2018-03-06T05:34:46.124Z,13.20
2018-03-06T05:37:14.462Z,12.17
2018-03-06T05:39:42.048Z,14.50
2018-03-06T05:42:09.723Z,12.87
2018-03-06T05:44:37.280Z,12.80
2018-03-06T05:47:05.762Z,11.33
2018-03-06T05:49:33.372Z,11.87
2018-03-06T05:52:00.954Z,10.00
2018-03-06T05:54:28.556Z,14.57
2018-03-06T05:56:56.132Z,11.47
2018-03-06T05:59:24.456Z,9.47
2018-03-06T06:01:52.034Z,11.80
2018-03-06T06:04:19.619Z,9.90
2018-03-06T06:06:47.177Z,10.77
2018-03-06T06:09:14.745Z,10.03
2018-03-06T06:11:43.127Z,11.63
2018-03-06T06:14:11.473Z,10.50
2018-03-06T06:16:39.030Z,10.23
2018-03-06T06:19:06.652Z,9.87
2018-03-06T06:21:34.993Z,10.07
2018-03-06T06:24:02.538Z,9.93
2018-03-06T06:26:30.122Z,11.77
2018-03-06T06:28:57.771Z,10.00
2018-03-06T06:31:25.327Z,11.00
2018-03-06T06:33:52.949Z,9.13
2018-03-06T06:36:21.273Z,11.33
2018-03-06T06:38:48.845Z,12.63
2018-03-06T06:41:16.505Z,10.83
2018-03-06T06:43:44.080Z,9.50
2018-03-06T06:46:11.626Z,10.50
2018-03-06T06:48:39.212Z,8.70
2018-03-06T06:51:06.738Z,9.40
2018-03-06T06:53:34.300Z,8.87
2018-03-06T06:56:01.885Z,11.67
2018-03-06T06:58:29.441Z,8.97
2018-03-06T07:00:57.095Z,9.47
2018-03-06T07:03:24.657Z,11.43
2018-03-06T07:05:52.220Z,9.20
2018-03-06T07:08:19.770Z,10.57
2018-03-06T07:10:47.433Z,12.87
2018-03-06T07:13:14.994Z,10.30
2018-03-06T07:15:44.141Z,10.33
2018-03-06T07:18:12.569Z,11.93
2018-03-06T07:20:40.143Z,8.93
2018-03-06T07:23:07.703Z,9.63
2018-03-06T07:25:35.257Z,8.37
2018-03-06T07:28:02.811Z,8.77
2018-03-06T07:30:30.379Z,10.43
2018-03-06T07:32:57.960Z,9.47
2018-03-06T07:35:25.603Z,9.33
2018-03-06T07:37:53.160Z,9.80
2018-03-06T07:40:20.717Z,9.80
2018-03-06T07:42:48.266Z,9.60
2018-03-06T07:45:15.857Z,13.37
2018-03-06T07:47:43.437Z,9.70
2018-03-06T07:50:11.769Z,9.70
2018-03-06T07:52:39.307Z,8.53
2018-03-06T07:55:06.862Z,9.27
2018-03-06T07:57:35.194Z,15.43
2018-03-06T08:00:02.768Z,11.83
2018-03-06T08:02:30.362Z,10.47
2018-03-06T08:04:57.935Z,11.20
2018-03-06T08:07:25.530Z,9.63
2018-03-06T08:09:54.763Z,11.27
2018-03-06T08:12:23.121Z,10.13
2018-03-06T08:14:50.658Z,9.77
2018-03-06T08:17:18.345Z,9.67
2018-03-06T08:19:46.010Z,10.07
2018-03-06T08:22:13.660Z,9.60
2018-03-06T08:24:41.233Z,10.27
2018-03-06T08:27:08.803Z,9.73
2018-03-06T08:29:36.370Z,8.80
2018-03-06T08:32:03.919Z,9.50
2018-03-06T08:34:31.538Z,11.30
2018-03-06T08:36:59.105Z,10.23
2018-03-06T08:39:26.683Z,9.33
2018-03-06T08:41:54.255Z,9.17
2018-03-06T08:44:21.820Z,11.10
2018-03-06T08:46:49.395Z,13.87
2018-03-06T08:49:16.963Z,13.90
2018-03-06T08:51:45.300Z,11.53
2018-03-06T08:54:12.964Z,9.63
2018-03-06T08:56:40.522Z,9.80
2018-03-06T08:59:08.073Z,11.03
2018-03-06T09:01:35.651Z,10.17
2018-03-06T09:04:03.385Z,11.70
2018-03-06T09:06:30.926Z,11.13
2018-03-06T09:08:58.512Z,10.43
2018-03-06T09:11:26.097Z,10.73
2018-03-06T09:13:53.766Z,11.70
2018-03-06T09:16:21.357Z,11.93
2018-03-06T09:18:49.684Z,14.37
2018-03-06T09:21:17.260Z,13.40
2018-03-06T09:23:44.835Z,15.63
2018-03-06T09:26:12.384Z,15.43
2018-03-06T09:28:40.026Z,16.77
2018-03-06T09:31:07.700Z,20.57
2018-03-06T09:33:35.256Z,19.07
2018-03-06T09:36:02.806Z,19.37
2018-03-06T09:38:30.414Z,20.83
2018-03-06T09:40:58.770Z,21.47
2018-03-06T09:43:26.329Z,24.63
2018-03-06T09:45:53.903Z,23.03
2018-03-06T09:48:21.473Z,22.33
2018-03-06T09:50:49.817Z,24.10
2018-03-06T09:53:17.381Z,21.37
2018-03-06T09:55:44.921Z,20.63
2018-03-06T09:58:12.504Z,19.87
2018-03-06T10:00:40.085Z,19.40
2018-03-06T10:03:07.737Z,20.00
2018-03-06T10:05:35.286Z,21.90
2018-03-06T10:08:02.947Z,19.83
2018-03-06T10:10:30.504Z,21.17
2018-03-06T10:12:58.052Z,19.77
2018-03-06T10:15:25.630Z,20.83
2018-03-06T10:17:53.227Z,20.00
2018-03-06T10:20:21.543Z,21.03
2018-03-06T10:22:49.126Z,17.47
2018-03-06T10:25:16.780Z,23.77
2018-03-06T10:27:44.320Z,18.53
2018-03-06T10:30:11.876Z,14.40
2018-03-06T10:32:39.418Z,16.17
2018-03-06T10:35:07.776Z,14.67
2018-03-06T10:37:35.339Z,19.37
2018-03-06T10:40:03.672Z,17.50
2018-03-06T10:42:31.222Z,15.03
2018-03-06T10:44:58.812Z,15.87
2018-03-06T10:47:26.346Z,16.80
2018-03-06T10:49:53.933Z,15.90
2018-03-06T10:52:21.510Z,14.83
2018-03-06T10:54:49.070Z,15.20
2018-03-06T10:57:16.606Z,15.77
2018-03-06T10:59:44.280Z,14.20
2018-03-06T11:02:14.875Z,15.87
2018-03-06T11:04:42.423Z,14.73
2018-03-06T11:07:10.018Z,13.50
2018-03-06T11:09:37.583Z,15.80
2018-03-06T11:12:05.153Z,13.73
2018-03-06T11:14:32.729Z,13.63
2018-03-06T11:17:00.372Z,14.13
2018-03-06T11:19:27.930Z,14.47
2018-03-06T11:21:55.485Z,12.40
2018-03-06T11:24:23.037Z,13.27
2018-03-06T11:26:50.599Z,14.87
2018-03-06T11:29:18.176Z,12.87
2018-03-06T11:31:45.830Z,12.17
2018-03-06T11:34:13.480Z,13.27
2018-03-06T11:36:41.055Z,12.23
2018-03-06T11:39:08.706Z,10.33
2018-03-06T11:41:36.259Z,11.23
2018-03-06T11:44:03.934Z,11.40
2018-03-06T11:46:31.483Z,10.87
2018-03-06T11:48:59.035Z,11.13
2018-03-06T11:51:26.610Z,11.77
2018-03-06T11:53:54.156Z,10.97
2018-03-06T11:56:21.729Z,12.20
2018-03-06T11:58:49.296Z,11.73
2018-03-06T12:01:16.847Z,11.37
2018-03-06T12:03:44.394Z,11.73
2018-03-06T12:06:12.074Z,11.70
2018-03-06T12:08:39.631Z,13.00
2018-03-06T12:11:07.196Z,12.47
2018-03-06T12:13:34.776Z,13.60
2018-03-06T12:16:02.432Z,13.53
2018-03-06T12:18:29.993Z,14.37
2018-03-06T12:20:57.575Z,16.00
2018-03-06T12:23:25.212Z,13.93
2018-03-06T12:25:52.762Z,12.37
2018-03-06T12:28:20.334Z,11.53
2018-03-06T12:30:47.994Z,11.93
2018-03-06T12:33:15.545Z,11.40
2018-03-06T12:35:43.172Z,14.23
2018-03-06T12:38:10.716Z,10.97
2018-03-06T12:40:39.056Z,10.10
2018-03-06T12:43:06.708Z,10.17
2018-03-06T12:45:34.261Z,9.47
2018-03-06T12:48:01.828Z,11.00
2018-03-06T12:50:29.427Z,10.90
2018-03-06T12:52:57.750Z,10.77
2018-03-06T12:55:25.304Z,11.60
2018-03-06T12:57:52.867Z,11.43
2018-03-06T13:00:20.428Z,11.47
2018-03-06T13:02:48.040Z,10.73
2018-03-06T13:05:15.633Z,10.80
2018-03-06T13:07:43.183Z,10.30
2018-03-06T13:10:11.509Z,11.07
2018-03-06T13:12:39.063Z,10.83
2018-03-06T13:15:06.616Z,11.47
2018-03-06T13:17:34.176Z,10.03
2018-03-06T13:20:01.864Z,11.23
2018-03-06T13:22:29.415Z,10.53
2018-03-06T13:24:56.978Z,10.63
2018-03-06T13:27:24.640Z,9.83
2018-03-06T13:29:52.306Z,10.63
2018-03-06T13:32:19.965Z,9.77
2018-03-06T13:34:47.631Z,10.37
2018-03-06T13:37:15.286Z,10.50
2018-03-06T13:39:42.840Z,11.50
2018-03-06T13:42:10.410Z,9.43
2018-03-06T13:44:37.949Z,8.73
2018-03-06T13:47:05.527Z,9.63
2018-03-06T13:49:33.095Z,9.07
2018-03-06T13:52:00.750Z,9.00
2018-03-06T13:54:28.292Z,10.07
2018-03-06T13:56:55.859Z,9.70
2018-03-06T13:59:23.419Z,9.10
2018-03-06T14:01:50.999Z,9.53
2018-03-06T14:04:18.568Z,10.33
2018-03-06T14:06:46.147Z,10.33
2018-03-06T14:09:14.472Z,11.50
2018-03-06T14:11:42.071Z,10.47
2018-03-06T14:14:09.719Z,10.30
2018-03-06T14:16:37.367Z,11.87
2018-03-06T14:19:04.923Z,10.53
2018-03-06T14:21:32.504Z,10.63
2018-03-06T14:24:00.169Z,12.30
2018-03-06T14:26:27.818Z,11.60
2018-03-06T14:28:55.386Z,10.97
2018-03-06T14:31:22.920Z,10.77
2018-03-06T14:33:50.480Z,10.80
2018-03-06T14:36:18.034Z,11.30
2018-03-06T14:38:45.602Z,10.33
2018-03-06T14:41:13.162Z,10.67
2018-03-06T14:43:40.725Z,10.37
2018-03-06T14:46:08.292Z,10.67
2018-03-06T14:48:35.858Z,10.57
2018-03-06T14:51:03.408Z,11.00
2018-03-06T14:53:30.998Z,10.80
2018-03-06T14:55:58.649Z,10.67
2018-03-06T14:58:26.304Z,9.97
2018-03-06T15:00:53.860Z,10.13
2018-03-06T15:03:21.532Z,10.53
2018-03-06T15:05:49.098Z,10.87
2018-03-06T15:08:16.630Z,10.30
2018-03-06T15:10:44.210Z,9.97
2018-03-06T15:13:11.759Z,11.10
2018-03-06T15:15:39.306Z,12.27
2018-03-06T15:18:06.890Z,10.57
2018-03-06T15:20:34.435Z,10.30
2018-03-06T15:23:01.978Z,9.97
2018-03-06T15:25:29.569Z,9.40
2018-03-06T15:27:57.114Z,12.17
2018-03-06T15:30:24.674Z,14.03
2018-03-06T15:32:52.256Z,9.40
2018-03-06T15:35:19.828Z,10.77
2018-03-06T15:37:47.389Z,8.50
2018-03-06T15:40:15.047Z,8.10
2018-03-06T15:42:42.604Z,8.90
2018-03-06T15:45:10.251Z,7.97
2018-03-06T15:47:37.802Z,8.77
2018-03-06T15:50:05.386Z,8.67
2018-03-06T15:52:32.950Z,8.70
2018-03-06T15:55:00.538Z,8.03
2018-03-06T15:57:28.884Z,7.83
2018-03-06T15:59:56.536Z,7.37
2018-03-06T16:02:24.203Z,7.70
2018-03-06T16:04:51.789Z,8.13
2018-03-06T16:07:19.358Z,12.13
2018-03-06T16:09:46.931Z,9.07
2018-03-06T16:12:14.500Z,8.83
2018-03-06T16:14:42.823Z,7.27
2018-03-06T16:17:10.477Z,7.07
2018-03-06T16:19:38.020Z,7.13
2018-03-06T16:22:05.569Z,6.20
2018-03-06T16:24:33.168Z,7.17
2018-03-06T16:27:00.716Z,6.83
2018-03-06T16:29:28.269Z,7.67
2018-03-06T16:31:55.843Z,8.23
2018-03-06T16:34:23.414Z,7.00
2018-03-06T16:36:51.076Z,8.27
2018-03-06T16:39:18.676Z,9.07
2018-03-06T16:41:47.018Z,7.53
2018-03-06T16:44:14.565Z,7.30
2018-03-06T16:46:42.140Z,8.13
2018-03-06T16:49:09.698Z,8.57
2018-03-06T16:51:37.354Z,8.30
2018-03-06T16:54:04.914Z,7.80
2018-03-06T16:56:32.459Z,8.63
2018-03-06T16:59:00.032Z,8.60
2018-03-06T17:01:27.644Z,7.80
2018-03-06T17:03:55.990Z,9.97
2018-03-06T17:06:23.535Z,8.80
2018-03-06T17:08:51.101Z,11.10
2018-03-06T17:11:18.657Z,10.47
2018-03-06T17:13:46.232Z,8.77
2018-03-06T17:16:13.882Z,8.83
2018-03-06T17:18:41.588Z,10.13
2018-03-06T17:21:09.909Z,8.00
2018-03-06T17:23:37.489Z,8.63
2018-03-06T17:26:05.130Z,9.80
2018-03-06T17:28:32.715Z,8.77
2018-03-06T17:31:00.392Z,12.60
2018-03-06T17:33:28.108Z,9.07
2018-03-06T17:35:55.696Z,12.03
2018-03-06T17:38:23.264Z,11.03
2018-03-06T17:40:51.865Z,12.57
2018-03-06T17:43:19.433Z,11.13
2018-03-06T17:45:47.795Z,11.83
2018-03-06T17:48:15.467Z,13.90
2018-03-06T17:50:43.851Z,12.77
2018-03-06T17:53:12.327Z,11.53
2018-03-06T17:55:40.695Z,13.63
2018-03-06T17:58:08.372Z,15.13
2018-03-06T18:00:36.757Z,18.53
2018-03-06T18:03:05.130Z,14.90
2018-03-06T18:05:33.865Z,17.53
2018-03-06T18:08:01.539Z,16.77
2018-03-06T18:10:29.133Z,15.83
2018-03-06T18:12:56.810Z,16.67
2018-03-06T18:15:25.235Z,15.20
2018-03-06T18:17:52.938Z,20.33
2018-03-06T18:20:21.336Z,15.73
2018-03-06T18:22:49.781Z,16.47
2018-03-06T18:25:17.499Z,15.83
2018-03-06T18:27:45.495Z,15.53
2018-03-06T18:30:13.101Z,16.57
2018-03-06T18:32:40.675Z,17.57
2018-03-06T18:35:09.043Z,17.70
2018-03-06T18:37:37.429Z,17.10
2018-03-06T18:40:05.794Z,17.13
2018-03-06T18:42:33.387Z,16.83
2018-03-06T18:45:01.003Z,14.10
2018-03-06T18:47:28.593Z,14.10
2018-03-06T18:50:06.016Z,16.93
2018-03-06T18:52:33.696Z,26.40
2018-03-06T18:55:01.774Z,53.87
2018-03-06T18:57:30.428Z,54.10
2018-03-06T19:03:10.114Z,16.37
2018-03-06T19:06:03.434Z,17.90
2018-03-06T19:08:31.074Z,17.83
2018-03-06T19:10:58.828Z,23.03
2018-03-06T19:13:26.414Z,18.60
2018-03-06T19:15:54.068Z,20.83
2018-03-06T19:18:22.749Z,24.47
2018-03-06T19:20:50.474Z,23.93
2018-03-06T19:23:18.352Z,22.37
2018-03-06T19:25:45.922Z,20.80
2018-03-06T19:28:13.490Z,20.03
2018-03-06T19:30:41.068Z,19.07
2018-03-06T19:33:08.639Z,17.30
2018-03-06T19:35:36.216Z,16.47
2018-03-06T19:38:04.732Z,18.17
2018-03-06T19:40:32.393Z,19.77
2018-03-06T19:43:00.053Z,21.23
2018-03-06T19:45:27.648Z,20.63
2018-03-06T19:47:55.312Z,22.20
2018-03-06T19:50:22.874Z,20.90
2018-03-06T19:52:50.542Z,20.73
2018-03-06T19:55:18.904Z,19.80
2018-03-06T19:57:46.590Z,19.00
2018-03-06T20:00:15.128Z,18.97
2018-03-06T20:02:42.709Z,19.47
2018-03-06T20:05:10.277Z,21.43
2018-03-06T20:07:39.443Z,23.63
2018-03-06T20:10:07.095Z,21.23
2018-03-06T20:12:34.687Z,22.07
2018-03-06T20:15:07.963Z,22.63
2018-03-06T20:17:35.548Z,21.53
2018-03-06T20:20:03.194Z,23.50
2018-03-06T20:22:30.848Z,23.20
2018-03-06T20:25:04.107Z,22.80
2018-03-06T20:27:32.438Z,23.17
2018-03-06T20:29:59.985Z,23.27
2018-03-06T20:32:33.231Z,23.50
2018-03-06T20:35:01.568Z,23.73
2018-03-06T20:37:29.128Z,25.20
2018-03-06T20:40:02.413Z,23.83
2018-03-06T20:42:29.998Z,27.20
2018-03-06T20:44:57.642Z,25.33
2018-03-06T20:47:25.214Z,25.17
2018-03-06T20:49:52.761Z,24.33
2018-03-06T20:52:20.371Z,25.00
2018-03-06T20:54:54.509Z,24.43
2018-03-06T20:57:22.063Z,24.67
2018-03-06T20:59:49.606Z,23.63
2018-03-06T21:02:17.959Z,24.43
2018-03-06T21:04:45.526Z,25.13
2018-03-06T21:07:13.064Z,24.13
2018-03-06T21:09:40.630Z,22.50
2018-03-06T21:12:08.178Z,23.73
2018-03-06T21:14:35.832Z,21.87
2018-03-06T21:17:03.400Z,22.00
2018-03-06T21:19:30.972Z,21.90
2018-03-06T21:21:58.762Z,21.33
2018-03-06T21:24:26.651Z,20.97
2018-03-06T21:26:54.975Z,21.07
2018-03-06T21:29:22.531Z,21.27
2018-03-06T21:31:50.110Z,19.50
2018-03-06T21:34:17.660Z,20.20
2018-03-06T21:36:45.226Z,22.03
2018-03-06T21:39:12.879Z,18.43
2018-03-06T21:41:40.448Z,18.00
2018-03-06T21:44:07.987Z,17.63
2018-03-06T21:46:35.571Z,16.80
2018-03-06T21:49:03.127Z,18.47
2018-03-06T21:51:30.808Z,17.80
2018-03-06T21:53:58.389Z,18.67
2018-03-06T21:56:26.808Z,23.83
2018-03-06T21:58:54.389Z,16.80
2018-03-06T22:01:21.965Z,16.40
2018-03-06T22:03:49.506Z,18.83
2018-03-06T22:06:17.083Z,15.90
2018-03-06T22:08:44.658Z,16.30
2018-03-06T22:11:12.206Z,15.97
2018-03-06T22:13:39.757Z,16.17
2018-03-06T22:16:07.321Z,16.27
2018-03-06T22:18:35.015Z,17.17
2018-03-06T22:21:03.304Z,15.07
2018-03-06T22:23:31.617Z,17.87
2018-03-06T22:25:59.176Z,18.80
2018-03-06T22:28:26.746Z,15.90
2018-03-06T22:30:54.301Z,18.30
2018-03-06T22:33:21.845Z,16.80
2018-03-06T22:35:49.386Z,16.50
2018-03-06T22:38:17.004Z,15.97
2018-03-06T22:40:44.664Z,17.60
2018-03-06T22:43:12.321Z,16.53
2018-03-06T22:45:39.988Z,17.10
2018-03-06T22:48:07.539Z,16.33
2018-03-06T22:50:35.100Z,15.97
2018-03-06T22:53:02.680Z,18.50
2018-03-06T22:55:30.334Z,15.17
2018-03-06T22:57:57.980Z,17.43
2018-03-06T23:00:25.548Z,16.33
2018-03-06T23:02:53.208Z,18.30
2018-03-06T23:05:20.761Z,17.10
2018-03-06T23:07:48.321Z,16.00
2018-03-06T23:10:15.871Z,15.97
2018-03-06T23:12:43.408Z,16.33
2018-03-06T23:15:10.986Z,15.93
2018-03-06T23:17:38.539Z,16.07
2018-03-06T23:20:06.100Z,16.90
2018-03-06T23:22:33.684Z,18.73
2018-03-06T23:25:01.272Z,18.53
2018-03-06T23:27:28.824Z,17.33
2018-03-06T23:29:56.391Z,17.67
2018-03-06T23:32:23.936Z,16.93
2018-03-06T23:34:51.491Z,16.73
2018-03-06T23:37:19.046Z,16.57
2018-03-06T23:39:46.601Z,19.40
2018-03-06T23:42:14.167Z,19.73
2018-03-06T23:44:41.744Z,17.73
2018-03-06T23:47:09.399Z,16.87
2018-03-06T23:49:36.949Z,16.37
2018-03-06T23:52:04.492Z,16.07
2018-03-06T23:54:32.054Z,19.23
2018-03-06T23:56:59.608Z,17.83
2018-03-06T23:59:27.202Z,17.93
